Terminal Aerodrome Forecast
Issued by NWS Austin/San Antonio, TX

Home | Current Version | Previous Version | Text Only | Print | Product List | Glossary On
Versions: 1 2 3 4 5 6 7 8 9 10 11 12
761
FTUS44 KEWX 081139
TAFDRT
TAF
KDRT 081139Z 0812/0912 30004KT P6SM BKN250
     FM081500 34010KT P6SM BKN250
     FM082100 32004KT P6SM BKN250=

USA.gov is the U.S. government's official web portal to all federal, state and local government web resources and services.